Time;durP1;ratioP1;P1;durP2;ratioP2;P2;SDS_P1;SDS_P2;PMS_P1;PMS_P2;Temp;Humidity;BMP_temperature;BMP_pressure;BME280_temperature;BME280_humidity;BME280_pressure;Samples;Min_cycle;Max_cycle;Signal;HPM_P1;HPM_P2
2023/01/02 00:00:27;;;;;;;10.00;6.25;;;10.20;99.90;;;;;;5049890;28;20040;-68
2023/01/02 00:02:59;;;;;;;9.82;5.95;;;10.20;99.90;;;;;;5033262;28;20056;-68
2023/01/02 00:05:26;;;;;;;9.45;5.90;;;10.30;99.90;;;;;;5033019;28;20086;-68
2023/01/02 00:08:01;;;;;;;8.63;5.20;;;10.30;99.90;;;;;;5032070;28;20044;-68
2023/01/02 00:10:27;;;;;;;9.75;6.18;;;10.40;99.90;;;;;;5032926;28;20049;-68
2023/01/02 00:13:00;;;;;;;11.13;6.45;;;10.40;99.90;;;;;;5050554;28;20045;-68
2023/01/02 00:15:27;;;;;;;7.95;5.55;;;10.30;99.90;;;;;;5033467;28;20194;-68
2023/01/02 00:18:00;;;;;;;9.13;5.35;;;10.40;99.90;;;;;;5051436;28;20060;-68
2023/01/02 00:20:26;;;;;;;7.85;5.30;;;10.40;99.90;;;;;;5050684;28;20072;-68
2023/01/02 00:22:59;;;;;;;9.90;5.15;;;10.40;99.90;;;;;;5033021;28;20041;-68
2023/01/02 00:25:25;;;;;;;8.40;6.35;;;10.40;99.90;;;;;;5050956;28;20167;-67
2023/01/02 00:27:58;;;;;;;10.18;6.00;;;10.40;99.90;;;;;;5049269;28;20140;-67
2023/01/02 00:30:29;;;;;;;8.70;5.82;;;10.40;99.90;;;;;;5046931;28;20052;-67
2023/01/02 00:33:01;;;;;;;8.68;5.28;;;10.40;99.90;;;;;;5048370;28;20520;-67
2023/01/02 00:35:28;;;;;;;11.13;6.25;;;10.40;99.90;;;;;;5050207;28;20437;-67
2023/01/02 00:38:00;;;;;;;9.65;6.43;;;10.50;99.90;;;;;;5049674;28;20037;-67
2023/01/02 00:40:27;;;;;;;10.27;6.85;;;10.40;99.90;;;;;;5028484;28;20069;-67
2023/01/02 00:43:13;;;;;;;12.68;7.30;;;10.40;99.90;;;;;;5030404;28;20042;-67
2023/01/02 00:45:42;;;;;;;12.18;7.13;;;10.40;99.90;;;;;;5012729;28;20056;-67
2023/01/02 00:48:14;;;;;;;12.50;7.70;;;10.40;99.90;;;;;;5029138;28;20104;-67
2023/01/02 00:50:48;;;;;;;16.67;9.13;;;10.40;99.90;;;;;;5030642;28;20068;-67
2023/01/02 00:53:21;;;;;;;12.82;8.60;;;10.40;99.90;;;;;;5013060;28;20123;-68
2023/01/02 00:55:47;;;;;;;12.40;7.85;;;10.40;99.90;;;;;;5012097;28;20041;-67
2023/01/02 00:58:21;;;;;;;13.05;8.00;;;10.40;99.90;;;;;;5011649;28;20037;-68
2023/01/02 01:00:49;;;;;;;12.57;8.88;;;10.40;99.90;;;;;;5028837;28;20045;-68
2023/01/02 01:03:22;;;;;;;13.75;8.32;;;10.40;99.90;;;;;;5004980;28;20099;-67
2023/01/02 01:05:48;;;;;;;13.15;8.25;;;10.40;99.90;;;;;;5012854;28;20033;-67
2023/01/02 01:08:24;;;;;;;14.25;8.80;;;10.50;99.90;;;;;;4998522;28;20116;-67
2023/01/02 01:10:50;;;;;;;19.13;10.38;;;10.40;99.90;;;;;;5030753;28;20080;-68
2023/01/02 01:13:26;;;;;;;17.40;9.77;;;10.50;99.90;;;;;;5029176;28;20409;-67
2023/01/02 01:15:52;;;;;;;19.35;9.75;;;10.50;99.90;;;;;;5006812;28;20092;-67
2023/01/02 01:18:28;;;;;;;17.83;10.10;;;10.50;99.90;;;;;;5012916;28;20124;-68
2023/01/02 01:20:54;;;;;;;16.20;9.95;;;10.50;99.90;;;;;;5012987;28;20037;-68
2023/01/02 01:23:27;;;;;;;14.80;9.63;;;10.50;99.90;;;;;;5012046;28;20043;-67
2023/01/02 01:25:53;;;;;;;16.38;9.13;;;10.50;99.90;;;;;;5011802;28;20084;-67
2023/01/02 01:28:31;;;;;;;12.73;7.90;;;10.60;99.90;;;;;;5029789;28;20049;-68
2023/01/02 01:31:06;;;;;;;16.63;8.93;;;10.60;99.90;;;;;;5010655;28;20095;-68
2023/01/02 01:33:40;;;;;;;17.98;9.98;;;10.60;99.90;;;;;;5011366;28;20041;-68
2023/01/02 01:36:20;;;;;;;16.95;10.02;;;10.60;99.90;;;;;;5028591;28;20045;-67
2023/01/02 01:38:54;;;;;;;;;;;10.60;99.90;;;;;;5012812;28;20056;-68
2023/01/02 01:41:38;;;;;;;19.75;10.77;;;10.70;99.90;;;;;;5013922;28;19924;-68
2023/01/02 01:44:47;;;;;;;18.75;11.73;;;10.60;99.90;;;;;;5010205;28;20033;-68
2023/01/02 01:47:50;;;;;;;15.70;11.07;;;10.70;99.90;;;;;;5027091;28;20049;-68
2023/01/02 01:50:22;;;;;;;18.95;11.55;;;10.70;99.90;;;;;;5010906;28;20073;-68
2023/01/02 01:53:20;;;;;;;19.00;11.73;;;10.70;99.90;;;;;;5011380;28;20045;-68
2023/01/02 01:55:54;;;;;;;17.30;10.10;;;10.80;99.90;;;;;;5029323;28;20045;-66
2023/01/02 01:58:31;;;;;;;19.55;10.77;;;10.70;99.90;;;;;;5029502;28;20485;-66
2023/01/02 02:00:57;;;;;;;20.63;12.50;;;10.80;99.90;;;;;;5029281;28;20562;-67
2023/01/02 02:03:34;;;;;;;23.45;12.63;;;10.80;99.90;;;;;;5012834;28;20037;-67
2023/01/02 02:06:01;;;;;;;22.80;11.93;;;10.80;99.90;;;;;;5028653;28;20098;-67
2023/01/02 02:08:59;;;;;;;22.10;13.55;;;10.90;99.90;;;;;;5013020;28;20049;-67
2023/01/02 02:11:26;;;;;;;17.48;12.18;;;10.90;99.90;;;;;;5029899;28;20051;-67
2023/01/02 02:14:00;;;;;;;25.23;13.40;;;10.90;99.90;;;;;;5012946;28;20141;-67
2023/01/02 02:16:44;;;;;;;19.17;10.57;;;10.90;99.90;;;;;;5028969;28;20858;-67
2023/01/02 02:19:45;;;;;;;27.15;13.32;;;10.90;99.90;;;;;;5011417;28;20052;-67
2023/01/02 02:22:37;;;;;;;19.85;12.40;;;10.90;99.90;;;;;;5010360;28;20076;-66
2023/01/02 02:25:47;;;;;;;23.95;13.32;;;10.90;99.90;;;;;;5028597;28;20049;-67
2023/01/02 02:28:20;;;;;;;;;;;10.90;99.90;;;;;;5030781;28;20401;-67
2023/01/02 02:31:25;;;;;;;21.27;11.98;;;10.90;99.90;;;;;;5028925;28;20470;-66
2023/01/02 02:34:23;;;;;;;18.75;11.05;;;11.00;99.90;;;;;;4995149;28;20084;-66
2023/01/02 02:37:30;;;;;;;21.75;12.10;;;11.00;99.90;;;;;;5030047;28;20095;-66
2023/01/02 02:40:19;;;;;;;18.55;11.00;;;11.00;99.90;;;;;;5022322;28;20095;-66
2023/01/02 02:43:20;;;;;;;24.80;13.80;;;11.00;99.90;;;;;;5008527;28;20535;-67
2023/01/02 02:46:11;;;;;;;21.15;12.38;;;11.00;99.90;;;;;;5030388;28;20451;-66
2023/01/02 02:49:12;;;;;;;19.30;11.68;;;11.00;99.90;;;;;;5013438;28;20049;-66
2023/01/02 02:52:18;;;;;;;15.80;9.85;;;11.00;99.90;;;;;;5001013;28;20492;-66
2023/01/02 02:55:00;;;;;;;17.48;9.45;;;11.00;99.90;;;;;;5010085;28;20489;-66
2023/01/02 02:57:34;;;;;;;22.08;11.85;;;11.00;99.90;;;;;;5053039;28;20083;-66
2023/01/02 03:00:01;;;;;;;23.75;12.85;;;11.00;99.90;;;;;;5053030;28;20083;-66
2023/01/02 03:05:46;;;;;;;22.02;11.35;;;11.00;99.90;;;;;;5035962;28;20060;-66
2023/01/02 03:08:44;;;;;;;24.27;13.02;;;11.00;99.90;;;;;;5035382;28;20048;-66
2023/01/02 03:11:17;;;;;;;24.00;10.48;;;11.00;99.90;;;;;;5035685;28;20045;-66
2023/01/02 03:14:08;;;;;;;19.38;12.95;;;11.00;99.90;;;;;;5052184;28;20095;-66
2023/01/02 03:16:40;;;;;;;27.17;12.55;;;11.00;99.90;;;;;;5052039;28;20048;-66
2023/01/02 03:19:28;;;;;;;20.08;11.48;;;11.10;99.90;;;;;;5053583;28;20033;-66
2023/01/02 03:22:05;;;;;;;17.48;10.32;;;11.00;99.90;;;;;;5034796;28;20044;-67
2023/01/02 03:24:39;;;;;;;21.85;11.65;;;11.00;99.90;;;;;;5035392;28;20265;-66
2023/01/02 03:27:18;;;;;;;21.85;11.25;;;11.10;99.90;;;;;;5018832;28;20044;-67
2023/01/02 03:29:59;;;;;;;28.15;12.55;;;11.10;99.90;;;;;;5034733;28;20044;-67
2023/01/02 03:32:37;;;;;;;18.88;10.57;;;11.10;99.90;;;;;;5053312;28;20037;-66
2023/01/02 03:35:07;;;;;;;20.33;10.40;;;11.00;99.90;;;;;;5051165;28;20048;-66
2023/01/02 03:37:41;;;;;;;;;;;11.00;99.90;;;;;;5053686;28;20464;-67
2023/01/02 03:40:15;;;;;;;19.85;11.05;;;11.00;99.90;;;;;;5053390;28;19928;-66
2023/01/02 03:43:20;;;;;;;25.27;12.90;;;11.00;99.90;;;;;;5014766;28;20041;-66
2023/01/02 03:46:33;;;;;;;19.13;10.63;;;11.10;99.90;;;;;;5033014;28;20049;-66
2023/01/02 03:49:25;;;;;;;26.10;14.20;;;11.00;99.90;;;;;;4954962;28;20101;-67
2023/01/02 03:51:51;;;;;;;24.40;12.13;;;11.00;99.90;;;;;;4971474;28;20095;-67
2023/01/02 03:54:24;;;;;;;25.38;11.82;;;11.10;99.90;;;;;;4955407;28;20479;-67
2023/01/02 03:57:15;;;;;;;26.67;12.05;;;11.00;99.90;;;;;;4970909;28;20061;-66
2023/01/02 04:00:03;;;;;;;22.98;11.52;;;11.10;99.90;;;;;;4971593;28;20183;-67
2023/01/02 04:02:59;;;;;;;26.90;13.48;;;11.10;99.90;;;;;;4974699;28;20046;-66
2023/01/02 04:05:53;;;;;;;27.73;14.05;;;11.10;99.90;;;;;;4973548;28;20057;-67
2023/01/02 04:08:47;;;;;;;25.92;13.73;;;11.10;99.90;;;;;;4974705;28;20058;-67
2023/01/02 04:11:16;;;;;;;26.85;14.63;;;11.10;99.90;;;;;;4990141;28;20049;-67
2023/01/02 04:13:54;;;;;;;25.43;13.77;;;11.10;99.90;;;;;;4974624;28;20089;-67
2023/01/02 04:16:26;;;;;;;30.27;15.77;;;11.10;99.90;;;;;;4974426;28;20313;-67
2023/01/02 04:19:34;;;;;;;29.20;15.45;;;11.10;99.90;;;;;;4974025;28;20043;-67
2023/01/02 04:22:12;;;;;;;36.03;16.42;;;11.10;99.90;;;;;;4945045;28;20053;-67
2023/01/02 04:24:45;;;;;;;30.52;15.25;;;11.10;99.90;;;;;;4989220;28;20521;-67
2023/01/02 04:27:39;;;;;;;26.98;16.65;;;11.10;99.90;;;;;;5032189;28;20049;-67
2023/01/02 04:30:05;;;;;;;32.67;15.75;;;11.20;99.90;;;;;;5014458;28;20132;-67
2023/01/02 04:32:49;;;;;;;27.23;15.27;;;11.10;99.90;;;;;;5013975;28;20041;-66
2023/01/02 04:35:21;;;;;;;29.10;14.48;;;11.20;99.90;;;;;;5032109;28;20077;-66
2023/01/02 04:37:54;;;;;;;31.85;16.17;;;11.20;99.90;;;;;;5030621;28;20044;-67
2023/01/02 04:40:27;;;;;;;28.83;15.55;;;11.20;99.90;;;;;;5032678;28;20136;-67
2023/01/02 04:43:24;;;;;;;29.00;15.35;;;11.20;99.90;;;;;;5014113;28;20084;-67
2023/01/02 04:45:50;;;;;;;34.97;17.50;;;11.20;99.90;;;;;;5031130;28;20136;-67
2023/01/02 04:48:22;;;;;;;29.75;15.32;;;11.20;99.90;;;;;;5031360;28;20069;-66
2023/01/02 04:50:48;;;;;;;35.83;17.15;;;11.20;99.90;;;;;;5013977;28;20037;-66
2023/01/02 04:53:21;;;;;;;31.77;16.80;;;11.20;99.90;;;;;;5031041;28;20041;-67
2023/01/02 04:55:47;;;;;;;24.63;15.05;;;11.20;99.90;;;;;;5030380;28;20169;-67
2023/01/02 04:58:19;;;;;;;26.55;15.68;;;11.20;99.90;;;;;;5030772;28;20113;-67
2023/01/02 05:00:45;;;;;;;31.05;15.77;;;11.30;99.90;;;;;;5013098;28;20048;-67
2023/01/02 05:03:17;;;;;;;28.35;15.45;;;11.30;99.90;;;;;;5013763;28;20041;-67
2023/01/02 05:05:43;;;;;;;31.52;15.65;;;11.30;99.90;;;;;;5043605;28;20049;-67
2023/01/02 05:08:15;;;;;;;30.27;17.65;;;11.30;99.90;;;;;;5050884;28;20036;-67
2023/01/02 05:10:47;;;;;;;28.30;15.35;;;11.30;99.90;;;;;;5030456;28;20127;-67
2023/01/02 05:13:20;;;;;;;24.17;15.57;;;11.30;99.90;;;;;;5026134;28;20046;-67
2023/01/02 05:15:52;;;;;;;31.33;16.67;;;11.30;99.90;;;;;;5046638;28;20038;-67
2023/01/02 05:18:25;;;;;;;32.92;17.38;;;11.30;99.90;;;;;;5048376;28;20436;-67
2023/01/02 05:20:51;;;;;;;31.60;16.17;;;11.30;99.90;;;;;;5029320;28;20496;-67
2023/01/02 05:26:11;;;;;;;25.77;15.07;;;11.30;99.90;;;;;;5033243;28;20052;-67
2023/01/02 05:28:44;;;;;;;31.85;17.15;;;11.30;99.90;;;;;;5032547;28;20148;-67
2023/01/02 05:31:10;;;;;;;34.05;16.42;;;11.30;99.90;;;;;;5046427;28;20049;-67
2023/01/02 05:33:43;;;;;;;31.60;15.05;;;11.30;99.90;;;;;;5016740;28;20040;-67
2023/01/02 05:36:09;;;;;;;28.38;15.65;;;11.30;99.90;;;;;;5045561;28;20051;-67
2023/01/02 05:38:42;;;;;;;25.95;16.48;;;11.40;99.90;;;;;;5050633;28;20025;-67
2023/01/02 05:41:08;;;;;;;26.80;16.73;;;11.40;99.90;;;;;;5049907;28;20088;-67
2023/01/02 05:43:53;;;;;;;27.35;17.90;;;11.40;99.90;;;;;;5029282;28;20043;-67
2023/01/02 05:46:20;;;;;;;33.00;16.05;;;11.40;99.90;;;;;;5029568;28;20120;-66
2023/01/02 05:48:53;;;;;;;31.35;19.23;;;11.40;99.90;;;;;;5010589;28;20096;-67
2023/01/02 05:51:19;;;;;;;26.92;17.77;;;11.40;99.90;;;;;;5030744;28;20434;-67
2023/01/02 05:53:52;;;;;;;36.22;19.38;;;11.40;99.90;;;;;;5030893;28;20037;-67
2023/01/02 05:56:20;;;;;;;31.55;19.38;;;11.40;99.90;;;;;;5029867;28;20077;-66
2023/01/02 05:58:55;;;;;;;26.77;16.73;;;11.40;99.90;;;;;;5012907;28;20045;-67
2023/01/02 06:01:23;;;;;;;29.27;18.20;;;11.40;99.90;;;;;;5030718;28;20116;-67
2023/01/02 06:03:58;;;;;;;27.10;17.63;;;11.40;99.90;;;;;;5012516;28;20041;-67
2023/01/02 06:06:36;;;;;;;27.95;17.88;;;11.40;99.90;;;;;;5030469;28;20033;-67
2023/01/02 06:09:10;;;;;;;27.73;17.50;;;11.40;99.90;;;;;;5012349;28;20287;-67
2023/01/02 06:11:36;;;;;;;25.60;17.20;;;11.40;99.90;;;;;;5012441;28;20048;-67
2023/01/02 06:14:09;;;;;;;27.90;17.85;;;11.30;99.90;;;;;;5030736;28;20045;-67
2023/01/02 06:16:35;;;;;;;37.45;19.25;;;11.30;99.90;;;;;;5029662;28;20042;-67
2023/01/02 06:19:08;;;;;;;32.25;17.80;;;11.30;99.90;;;;;;5012881;28;20393;-67
2023/01/02 06:21:34;;;;;;;23.58;15.13;;;11.30;99.90;;;;;;5012450;28;20041;-67
2023/01/02 06:24:06;;;;;;;20.25;13.45;;;11.30;99.90;;;;;;5029655;28;20044;-67
2023/01/02 06:26:32;;;;;;;14.93;10.15;;;11.30;99.90;;;;;;5012263;28;20048;-67
2023/01/02 06:29:04;;;;;;;7.65;5.75;;;11.20;99.90;;;;;;5031580;28;20037;-67
2023/01/02 06:31:32;;;;;;;6.70;5.68;;;11.10;99.90;;;;;;4999942;28;20053;-66
2023/01/02 06:34:06;;;;;;;11.63;6.70;;;10.90;99.90;;;;;;5034331;28;20041;-67
2023/01/02 06:36:33;;;;;;;8.65;7.10;;;10.70;99.90;;;;;;5034141;28;20052;-67
2023/01/02 06:39:05;;;;;;;11.02;8.25;;;10.60;99.90;;;;;;5016184;28;20041;-67
2023/01/02 06:41:31;;;;;;;10.68;8.05;;;10.50;99.90;;;;;;5034113;28;20510;-67
2023/01/02 06:44:20;;;;;;;10.93;8.43;;;10.40;99.90;;;;;;5000378;28;20047;-67
2023/01/02 06:46:46;;;;;;;12.98;9.50;;;10.40;99.90;;;;;;5034320;28;20053;-67
2023/01/02 06:49:18;;;;;;;13.45;9.60;;;10.30;99.90;;;;;;5016337;28;20456;-67
2023/01/02 06:51:44;;;;;;;15.02;10.27;;;10.20;99.90;;;;;;5033561;28;20501;-66
2023/01/02 06:54:16;;;;;;;16.95;10.20;;;10.20;99.90;;;;;;5016278;28;20076;-67
2023/01/02 06:56:48;;;;;;;14.20;7.97;;;10.10;99.90;;;;;;5015861;28;20545;-67
2023/01/02 06:59:21;;;;;;;15.00;8.27;;;10.10;99.90;;;;;;5015540;28;20038;-67
2023/01/02 07:01:47;;;;;;;13.65;7.38;;;10.00;99.90;;;;;;5016030;28;20041;-67
2023/01/02 07:04:21;;;;;;;16.65;7.72;;;9.80;99.90;;;;;;5033786;28;20048;-68
2023/01/02 07:06:50;;;;;;;19.27;8.52;;;9.70;99.90;;;;;;5032951;28;20045;-67
2023/01/02 07:09:22;;;;;;;19.88;8.00;;;9.60;99.90;;;;;;5016026;28;20065;-67
2023/01/02 07:11:48;;;;;;;9.52;4.75;;;9.50;99.90;;;;;;5033441;28;20042;-67
2023/01/02 07:14:20;;;;;;;11.20;4.22;;;9.50;99.90;;;;;;4999388;28;20044;-68
2023/01/02 07:16:46;;;;;;;8.32;3.20;;;9.40;99.90;;;;;;5015831;28;20056;-67
2023/01/02 07:19:18;;;;;;;8.50;2.47;;;9.30;99.90;;;;;;5013976;28;20030;-67
2023/01/02 07:21:44;;;;;;;7.07;2.67;;;9.10;99.90;;;;;;5004914;28;20050;-68
2023/01/02 07:24:20;;;;;;;6.32;2.40;;;9.10;99.90;;;;;;4996381;28;20034;-67
2023/01/02 07:26:46;;;;;;;6.10;2.33;;;8.90;99.90;;;;;;4993719;28;20053;-67
2023/01/02 07:29:18;;;;;;;11.35;3.13;;;8.90;99.90;;;;;;4994477;28;20038;-67
2023/01/02 07:31:44;;;;;;;7.15;2.58;;;8.80;99.90;;;;;;4994471;28;20524;-68
2023/01/02 07:34:16;;;;;;;9.55;2.65;;;8.70;99.90;;;;;;5013044;28;20124;-67
2023/01/02 07:36:42;;;;;;;7.05;2.47;;;8.70;99.90;;;;;;5014086;28;20056;-68
2023/01/02 07:39:14;;;;;;;6.97;2.25;;;8.70;99.90;;;;;;5013464;28;20038;-67
2023/01/02 07:42:01;;;;;;;5.55;2.13;;;8.60;99.90;;;;;;4993501;28;20137;-68
2023/01/02 07:44:33;;;;;;;4.47;1.80;;;8.60;99.90;;;;;;4990982;28;20431;-67
2023/01/02 07:47:12;;;;;;;4.78;1.80;;;8.60;99.90;;;;;;4974428;28;20096;-68
2023/01/02 07:49:39;;;;;;;6.00;1.83;;;8.50;99.90;;;;;;4993320;28;20042;-68
2023/01/02 07:52:16;;;;;;;4.50;1.95;;;8.50;99.90;;;;;;4993757;28;20043;-68
2023/01/02 07:54:42;;;;;;;5.40;2.25;;;8.50;99.90;;;;;;4975818;28;20053;-68
2023/01/02 07:57:14;;;;;;;6.07;2.40;;;8.50;99.90;;;;;;4975479;28;20367;-68
2023/01/02 07:59:40;;;;;;;4.75;2.10;;;8.50;99.90;;;;;;4960051;28;20042;-68
2023/01/02 08:02:15;;;;;;;4.70;2.53;;;8.50;99.90;;;;;;4975187;28;20479;-68
2023/01/02 08:04:41;;;;;;;5.00;2.70;;;8.40;99.90;;;;;;4974114;28;20035;-68
2023/01/02 08:07:15;;;;;;;7.28;2.70;;;8.40;99.90;;;;;;4958968;28;20045;-68
2023/01/02 08:09:41;;;;;;;9.40;8.45;;;8.40;99.90;;;;;;4992615;28;20038;-68
2023/01/02 08:12:13;;;;;;;16.33;14.80;;;8.40;99.90;;;;;;4975760;28;20686;-68
2023/01/02 08:14:39;;;;;;;12.82;9.07;;;8.40;99.90;;;;;;4993294;28;20038;-68
2023/01/02 08:17:11;;;;;;;10.75;8.40;;;8.40;99.90;;;;;;4975263;28;20053;-68
2023/01/02 08:19:37;;;;;;;13.85;9.60;;;8.40;99.90;;;;;;4975481;28;20049;-68
2023/01/02 08:22:09;;;;;;;9.48;4.60;;;8.40;99.90;;;;;;4975423;28;20042;-68
2023/01/02 08:24:35;;;;;;;6.65;4.30;;;8.40;99.90;;;;;;4975495;28;20486;-68
2023/01/02 08:27:00;;;;;;;9.02;5.22;;;8.40;99.90;;;;;;4975451;28;20097;-68
2023/01/02 08:29:33;;;;;;;7.55;4.45;;;8.40;99.90;;;;;;4974773;28;20077;-68
2023/01/02 08:31:59;;;;;;;6.72;3.95;;;8.40;99.90;;;;;;4992971;28;20076;-68
2023/01/02 08:34:31;;;;;;;5.88;2.70;;;8.40;99.90;;;;;;4992781;28;20041;-68
2023/01/02 08:36:57;;;;;;;7.15;3.80;;;8.40;99.90;;;;;;4992177;28;20053;-68
2023/01/02 08:39:35;;;;;;;8.48;3.50;;;8.40;99.90;;;;;;4975717;28;20050;-68
2023/01/02 08:42:14;;;;;;;6.68;3.65;;;8.40;99.90;;;;;;5012404;28;20080;-68
2023/01/02 08:44:42;;;;;;;12.00;4.47;;;8.40;99.90;;;;;;4994309;28;20499;-68
2023/01/02 08:47:14;;;;;;;8.55;4.00;;;8.40;99.90;;;;;;4994682;28;20034;-68
2023/01/02 08:49:40;;;;;;;10.73;4.22;;;8.40;99.90;;;;;;4994594;28;20046;-68
2023/01/02 08:52:12;;;;;;;11.77;3.70;;;8.40;99.90;;;;;;5010600;28;20044;-68
2023/01/02 08:54:38;;;;;;;9.35;4.07;;;8.40;99.90;;;;;;5010995;28;20045;-68
2023/01/02 08:57:10;;;;;;;8.48;3.25;;;8.40;99.90;;;;;;4992713;28;20049;-68
2023/01/02 08:59:36;;;;;;;7.05;3.42;;;8.40;99.90;;;;;;4993922;28;20083;-68
2023/01/02 09:02:08;;;;;;;4.82;2.75;;;8.40;99.90;;;;;;5011832;28;20453;-68
2023/01/02 09:04:34;;;;;;;6.32;2.72;;;8.30;99.90;;;;;;5011183;28;20164;-70
2023/01/02 09:07:00;;;;;;;4.88;2.83;;;8.30;99.90;;;;;;5012002;28;20084;-70
2023/01/02 09:09:32;;;;;;;6.28;1.92;;;8.40;99.90;;;;;;5011950;28;20454;-70
2023/01/02 09:11:59;;;;;;;6.78;3.00;;;8.40;99.90;;;;;;5011043;28;20042;-70
2023/01/02 09:14:32;;;;;;;7.05;2.63;;;8.40;99.90;;;;;;4994824;28;20078;-69
2023/01/02 09:16:58;;;;;;;5.75;2.55;;;8.40;99.90;;;;;;5011119;28;20053;-69
2023/01/02 09:19:32;;;;;;;6.13;2.83;;;8.40;99.90;;;;;;4993253;28;20034;-69
2023/01/02 09:22:00;;;;;;;11.65;3.35;;;8.40;99.90;;;;;;4994685;28;20088;-69
2023/01/02 09:24:33;;;;;;;10.98;4.07;;;8.30;99.90;;;;;;5011626;28;20084;-69
2023/01/02 09:26:59;;;;;;;9.65;3.03;;;8.40;99.90;;;;;;4993476;28;20060;-69
2023/01/02 09:29:37;;;;;;;8.80;3.03;;;8.40;99.90;;;;;;4996037;28;20120;-70
2023/01/02 09:32:09;;;;;;;9.55;3.40;;;8.40;99.90;;;;;;4991823;28;20088;-70
2023/01/02 09:34:36;;;;;;;8.43;2.70;;;8.40;99.90;;;;;;4994572;28;20053;-69
2023/01/02 09:37:01;;;;;;;6.63;1.83;;;8.40;99.90;;;;;;4977918;28;20037;-69
2023/01/02 09:39:34;;;;;;;5.10;2.20;;;8.50;99.90;;;;;;4993033;28;20042;-69
2023/01/02 09:42:22;;;;;;;7.82;2.28;;;8.40;99.90;;;;;;4989245;28;20042;-69
2023/01/02 09:44:53;;;;;;;9.30;2.42;;;8.50;99.90;;;;;;4974321;28;20046;-69
2023/01/02 09:47:29;;;;;;;5.60;2.42;;;8.50;99.90;;;;;;4989705;28;20510;-70
2023/01/02 09:49:59;;;;;;;4.22;1.80;;;8.50;99.90;;;;;;4989537;28;20081;-69
2023/01/02 09:52:35;;;;;;;7.32;2.60;;;8.50;99.90;;;;;;4972376;28;20121;-69
2023/01/02 09:55:01;;;;;;;5.45;2.53;;;8.60;99.90;;;;;;4985608;28;20517;-69
2023/01/02 09:57:34;;;;;;;6.35;2.65;;;8.60;99.90;;;;;;4974362;28;20379;-69
2023/01/02 10:00:12;;;;;;;5.30;2.70;;;8.60;99.90;;;;;;4972543;28;20049;-69
2023/01/02 10:02:53;;;;;;;8.70;4.25;;;8.60;99.90;;;;;;4973735;28;20079;-69
2023/01/02 10:05:40;;;;;;;13.45;4.85;;;8.70;99.90;;;;;;4973892;28;20132;-68
2023/01/02 10:08:22;;;;;;;10.77;5.57;;;8.70;99.90;;;;;;4973157;28;20077;-69
2023/01/02 10:11:07;;;;;;;8.68;3.55;;;8.80;99.90;;;;;;4991228;28;20038;-68
2023/01/02 10:13:55;;;;;;;6.78;3.20;;;8.80;99.90;;;;;;4991182;28;20061;-69
2023/01/02 10:16:26;;;;;;;7.28;2.63;;;8.80;99.90;;;;;;4973725;28;20100;-68
2023/01/02 10:19:01;;;;;;;7.30;2.75;;;8.70;99.90;;;;;;4956761;28;20487;-69
2023/01/02 10:21:36;;;;;;;6.55;2.97;;;8.80;99.90;;;;;;4990543;28;20038;-69
2023/01/02 10:24:26;;;;;;;8.10;2.80;;;8.80;99.90;;;;;;4973499;28;20506;-69
2023/01/02 10:26:53;;;;;;;10.40;2.70;;;8.70;99.90;;;;;;4991104;28;20038;-69
2023/01/02 10:29:35;;;;;;;11.90;3.65;;;8.70;99.90;;;;;;4973020;28;20560;-70
2023/01/02 10:32:18;;;;;;;6.93;3.20;;;8.70;99.90;;;;;;4991151;28;20049;-70
2023/01/02 10:34:58;;;;;;;8.75;2.67;;;8.70;99.90;;;;;;4990987;28;20121;-70
2023/01/02 10:37:37;;;;;;;5.75;2.80;;;8.70;99.90;;;;;;4973683;28;20039;-70
2023/01/02 10:40:03;;;;;;;6.57;2.45;;;8.80;99.90;;;;;;4991420;28;20058;-69
2023/01/02 10:42:50;;;;;;;5.47;2.47;;;8.80;99.90;;;;;;4991939;28;20089;-69
2023/01/02 10:45:16;;;;;;;9.98;2.85;;;8.80;99.90;;;;;;5010530;28;20042;-68
2023/01/02 10:47:48;;;;;;;8.30;2.70;;;8.80;99.90;;;;;;4992104;28;20042;-69
2023/01/02 10:50:18;;;;;;;6.38;2.88;;;8.90;99.90;;;;;;4992516;28;20045;-69
2023/01/02 10:53:09;;;;;;;5.63;2.30;;;8.90;99.90;;;;;;5010350;28;20052;-68
2023/01/02 10:55:41;;;;;;;6.18;3.28;;;9.00;99.90;;;;;;4996912;28;20132;-69
2023/01/02 10:58:31;;;;;;;4.82;2.15;;;9.00;99.90;;;;;;5027449;28;20096;-70
2023/01/02 11:01:12;;;;;;;8.10;2.42;;;9.10;99.90;;;;;;5027469;28;20051;-69
2023/01/02 11:03:46;;;;;;;15.00;5.75;;;9.10;99.90;;;;;;5001972;28;20117;-69
2023/01/02 11:06:30;;;;;;;6.47;2.05;;;9.20;99.90;;;;;;5010505;28;20069;-69
2023/01/02 11:09:04;;;;;;;6.25;1.80;;;9.20;99.90;;;;;;4997193;28;20046;-69
2023/01/02 11:11:31;;;;;;;6.18;1.80;;;9.40;99.90;;;;;;5027218;28;20046;-69
2023/01/02 11:14:14;;;;;;;8.02;1.85;;;9.50;99.90;;;;;;5017819;28;20410;-69
2023/01/02 11:16:40;;;;;;;7.35;1.90;;;9.70;99.90;;;;;;5007026;28;20041;-70
2023/01/02 11:19:27;;;;;;;5.03;1.63;;;9.80;99.90;;;;;;5031496;28;20037;-69
2023/01/02 11:22:06;;;;;;;9.88;2.28;;;9.70;99.90;;;;;;5014032;28;20045;-69
2023/01/02 11:24:34;;;;;;;23.95;8.57;;;9.80;99.90;;;;;;5032083;28;20047;-70
2023/01/02 11:27:01;;;;;;;10.10;2.53;;;9.90;99.90;;;;;;5023819;28;20050;-70
2023/01/02 11:29:42;;;;;;;12.77;4.82;;;9.90;99.90;;;;;;5014317;28;20103;-70
2023/01/02 11:32:28;;;;;;;10.43;3.85;;;9.70;99.90;;;;;;5031190;28;20037;-70
2023/01/02 11:35:01;;;;;;;6.57;1.92;;;9.60;99.90;;;;;;5030455;28;20037;-70
2023/01/02 11:37:34;;;;;;;5.53;1.73;;;9.60;99.90;;;;;;5013598;28;20557;-69
2023/01/02 11:40:23;;;;;;;6.43;1.75;;;9.50;99.90;;;;;;5014489;28;20048;-69
2023/01/02 11:46:05;;;;;;;10.70;2.85;;;9.40;99.90;;;;;;5013469;28;20072;-70
2023/01/02 11:48:37;;;;;;;5.47;1.45;;;9.40;99.90;;;;;;5020814;28;20052;-69
2023/01/02 11:51:04;;;;;;;10.88;1.20;;;9.30;99.90;;;;;;5008657;28;20053;-69
2023/01/02 11:53:46;;;;;;;7.07;1.30;;;9.30;99.90;;;;;;5030694;28;20486;-69
2023/01/02 11:56:29;;;;;;;6.57;1.40;;;9.30;99.90;;;;;;5030781;28;20034;-69
2023/01/02 11:59:10;;;;;;;11.25;1.63;;;9.40;99.90;;;;;;5012149;28;20478;-69
2023/01/02 12:01:48;;;;;;;12.10;2.00;;;9.50;99.90;;;;;;5030670;28;20033;-70
2023/01/02 12:04:21;;;;;;;9.02;1.50;;;9.60;99.90;;;;;;4987827;28;20044;-70
2023/01/02 12:07:02;;;;;;;5.47;1.83;;;9.80;99.90;;;;;;5021411;28;20129;-71
2023/01/02 12:09:59;;;;;;;9.07;1.50;;;10.40;99.90;;;;;;5031159;28;20045;-70
2023/01/02 12:12:54;;;;;;;12.77;1.90;;;10.70;99.90;;;;;;5030050;28;20048;-70
2023/01/02 12:15:20;;;;;;;7.93;1.38;;;10.60;99.90;;;;;;5030960;28;20037;-70
2023/01/02 12:18:05;;;;;;;8.75;1.52;;;10.40;99.90;;;;;;5012178;28;20048;-70
2023/01/02 12:20:53;;;;;;;11.00;2.92;;;10.20;99.90;;;;;;5011294;28;20034;-70
2023/01/02 12:23:48;;;;;;;9.65;2.35;;;10.10;99.90;;;;;;5030999;28;20049;-71
2023/01/02 12:26:21;;;;;;;9.02;1.83;;;10.00;99.90;;;;;;5027896;28;20068;-70
2023/01/02 12:29:18;;;;;;;10.75;2.38;;;9.90;99.90;;;;;;5029364;28;20750;-70
2023/01/02 12:31:50;;;;;;;8.48;1.75;;;9.90;99.90;;;;;;5020461;28;20045;-70
2023/01/02 12:34:34;;;;;;;10.77;1.83;;;9.80;99.90;;;;;;5012026;28;20106;-70
2023/01/02 12:37:05;;;;;;;8.15;2.22;;;9.80;99.90;;;;;;5030323;28;20501;-71
2023/01/02 12:40:14;;;;;;;12.82;2.90;;;9.70;99.90;;;;;;5012456;28;20041;-70
2023/01/02 12:43:31;;;;;;;10.25;2.50;;;9.70;99.90;;;;;;4969932;28;20056;-70
2023/01/02 12:46:18;;;;;;;9.07;1.90;;;9.70;99.90;;;;;;4996746;28;20050;-71
2023/01/02 12:49:12;;;;;;;13.38;3.38;;;9.70;99.90;;;;;;5025746;28;20073;-71
2023/01/02 12:51:45;;;;;;;8.38;2.00;;;9.70;99.90;;;;;;5010408;28;20057;-70
2023/01/02 12:54:42;;;;;;;9.23;2.17;;;9.70;99.90;;;;;;4992948;28;20052;-70
2023/01/02 12:57:31;;;;;;;11.77;1.95;;;9.70;99.90;;;;;;5009714;28;20045;-70
2023/01/02 13:00:15;;;;;;;17.77;2.95;;;9.70;99.90;;;;;;5001261;28;20039;-70
2023/01/02 13:03:00;;;;;;;11.57;2.00;;;9.70;99.90;;;;;;5007404;28;20065;-70
2023/01/02 13:05:54;;;;;;;9.73;1.85;;;9.70;99.90;;;;;;4992936;28;20048;-70
2023/01/02 13:08:29;;;;;;;15.20;2.30;;;9.70;99.90;;;;;;5008643;28;20058;-70
2023/01/02 13:11:00;;;;;;;16.05;3.20;;;9.60;99.90;;;;;;4984736;28;20052;-69
2023/01/02 13:13:39;;;;;;;14.38;2.28;;;9.60;99.90;;;;;;5010368;28;20116;-68
2023/01/02 13:16:10;;;;;;;14.77;2.28;;;9.60;99.90;;;;;;4990602;28;20056;-69
2023/01/02 13:19:10;;;;;;;12.10;2.22;;;9.60;99.90;;;;;;5009273;28;20070;-68
2023/01/02 13:22:14;;;;;;;8.70;1.95;;;9.70;99.90;;;;;;4987580;28;20683;-69
2023/01/02 13:24:42;;;;;;;12.55;2.10;;;9.60;99.90;;;;;;4991858;28;20510;-69
2023/01/02 13:27:16;;;;;;;11.35;2.05;;;9.60;99.90;;;;;;5008881;28;20061;-70
2023/01/02 13:29:44;;;;;;;11.73;2.72;;;9.70;99.90;;;;;;5025472;28;20038;-69
2023/01/02 13:32:18;;;;;;;13.02;2.42;;;9.70;99.90;;;;;;5009599;28;20046;-70
2023/01/02 13:35:03;;;;;;;8.75;2.40;;;9.80;99.90;;;;;;5008419;28;20477;-70
2023/01/02 13:37:37;;;;;;;9.23;2.47;;;9.70;99.90;;;;;;4990949;28;20478;-70